Time;durP1;ratioP1;P1;durP2;ratioP2;P2;SDS_P1;SDS_P2;PMS_P1;PMS_P2;Temp;Humidity;BMP_temperature;BMP_pressure;BME280_temperature;BME280_humidity;BME280_pressure;Samples;Min_cycle;Max_cycle;Signal;HPM_P1;HPM_P2
2024/02/04 00:00:25;;;;;;;10.90;5.10;;;7.50;99.90;;;;;;5044581;28;20188;-91
2024/02/04 00:02:51;;;;;;;10.10;4.83;;;7.50;99.90;;;;;;5059197;28;20207;-91
2024/02/04 00:05:18;;;;;;;18.20;4.77;;;7.40;99.90;;;;;;5059015;28;20165;-90
2024/02/04 00:07:45;;;;;;;11.87;4.27;;;7.40;99.90;;;;;;5059003;28;20189;-93
2024/02/04 00:10:11;;;;;;;9.75;4.68;;;7.40;99.90;;;;;;5042391;28;20284;-91
2024/02/04 00:12:41;;;;;;;10.23;4.07;;;7.40;99.90;;;;;;5039907;28;20198;-90
2024/02/04 00:15:08;;;;;;;7.60;3.67;;;7.40;99.90;;;;;;5039288;28;20598;-94
2024/02/04 00:20:24;;;;;;;11.10;4.00;;;7.40;99.90;;;;;;5040176;28;20296;-92
2024/02/04 00:22:51;;;;;;;11.07;4.10;;;7.40;99.90;;;;;;5019889;28;20181;-90
2024/02/04 00:25:19;;;;;;;9.43;4.03;;;7.40;99.90;;;;;;5049408;28;20185;-92
2024/02/04 00:27:45;;;;;;;9.33;3.93;;;7.40;99.90;;;;;;5053502;28;20210;-93
2024/02/04 00:30:11;;;;;;;7.00;3.50;;;7.40;99.90;;;;;;5040700;28;20181;-93
2024/02/04 00:33:02;;;;;;;7.33;3.37;;;7.30;99.90;;;;;;5053949;28;20308;-92
2024/02/04 00:35:29;;;;;;;11.87;3.83;;;7.30;99.90;;;;;;5050594;28;20181;-92
2024/02/04 00:37:57;;;;;;;10.07;3.70;;;7.30;99.90;;;;;;5051760;28;20668;-94
2024/02/04 00:40:26;;;;;;;8.57;3.40;;;7.30;99.90;;;;;;5023119;28;20213;-92
2024/02/04 00:42:55;;;;;;;15.30;3.87;;;7.20;99.90;;;;;;5038833;28;20189;-90
2024/02/04 00:45:21;;;;;;;9.33;4.10;;;7.20;99.90;;;;;;5038326;28;20584;-91
2024/02/04 00:47:59;;;;;;;9.93;4.20;;;7.20;99.90;;;;;;5052449;28;20205;-94
2024/02/04 00:50:25;;;;;;;10.67;5.40;;;7.20;99.90;;;;;;5047114;28;20636;-95
2024/02/04 00:52:53;;;;;;;12.73;5.23;;;7.20;99.90;;;;;;5038060;28;20177;-94
2024/02/04 00:55:20;;;;;;;10.37;5.00;;;7.20;99.90;;;;;;5038569;28;20257;-90
2024/02/04 00:57:46;;;;;;;8.60;4.70;;;7.30;99.90;;;;;;5038946;28;20209;-93
2024/02/04 01:00:15;;;;;;;15.03;5.13;;;7.30;99.90;;;;;;5038594;28;20508;-91
2024/02/04 01:02:43;;;;;;;10.77;4.47;;;7.30;99.90;;;;;;5038546;28;20231;-94
2024/02/04 01:05:09;;;;;;;12.33;5.13;;;7.30;99.90;;;;;;5037703;28;20189;-94
2024/02/04 01:07:36;;;;;;;9.53;4.63;;;7.30;99.90;;;;;;5046166;28;20220;-93
2024/02/04 01:10:02;;;;;;;9.67;4.43;;;7.30;99.90;;;;;;5038019;28;20177;-91
2024/02/04 01:12:29;;;;;;;12.70;4.87;;;7.30;99.90;;;;;;5038519;28;20684;-92
2024/02/04 01:14:55;;;;;;;12.87;4.60;;;7.30;99.90;;;;;;5039139;28;20525;-93
2024/02/04 01:17:21;;;;;;;9.40;5.10;;;7.20;99.90;;;;;;5045482;28;20202;-91
2024/02/04 01:19:51;;;;;;;11.40;5.70;;;7.20;99.90;;;;;;5051779;28;20235;-94
2024/02/04 01:22:17;;;;;;;12.63;5.13;;;7.20;99.90;;;;;;5057624;28;20208;-92
2024/02/04 01:24:43;;;;;;;12.67;5.37;;;7.20;99.90;;;;;;5057786;28;20185;-92
2024/02/04 01:27:10;;;;;;;9.60;4.50;;;7.20;99.90;;;;;;5057784;28;20557;-93
2024/02/04 01:29:35;;;;;;;13.33;5.73;;;7.20;99.90;;;;;;5057720;28;20212;-91
2024/02/04 01:32:01;;;;;;;13.00;5.50;;;7.20;99.90;;;;;;5057690;28;20220;-93
2024/02/04 01:34:30;;;;;;;10.10;5.70;;;7.10;99.90;;;;;;5057724;28;20180;-93
2024/02/04 01:36:56;;;;;;;9.87;5.23;;;7.10;99.90;;;;;;5057626;28;20235;-93
2024/02/04 01:39:22;;;;;;;8.90;4.47;;;7.10;99.90;;;;;;5057499;28;20169;-91
2024/02/04 01:41:51;;;;;;;13.50;5.83;;;7.10;99.90;;;;;;5057490;28;20200;-90
2024/02/04 01:44:18;;;;;;;11.13;4.93;;;7.10;99.90;;;;;;5056462;28;20254;-90
2024/02/04 01:46:45;;;;;;;11.30;5.07;;;7.10;99.90;;;;;;5057390;28;20211;-92
2024/02/04 01:49:12;;;;;;;13.77;5.33;;;7.20;99.90;;;;;;5056158;28;20204;-90
2024/02/04 01:52:11;;;;;;;10.27;5.20;;;7.20;99.90;;;;;;5037216;28;20197;-91
2024/02/04 01:54:40;;;;;;;8.00;5.13;;;7.20;99.90;;;;;;5037144;28;20178;-94
2024/02/04 01:57:09;;;;;;;13.43;5.10;;;7.20;99.90;;;;;;5053625;28;20188;-90
2024/02/04 01:59:37;;;;;;;11.37;5.13;;;7.20;99.90;;;;;;5056903;28;20191;-91
2024/02/04 02:02:05;;;;;;;10.90;5.20;;;7.20;99.90;;;;;;5057065;28;20204;-92
2024/02/04 02:04:42;;;;;;;11.70;6.00;;;7.20;99.90;;;;;;5037121;28;20170;-91
2024/02/04 02:07:09;;;;;;;11.73;5.17;;;7.20;99.90;;;;;;5052812;28;20211;-90
2024/02/04 02:09:38;;;;;;;10.37;5.97;;;7.20;99.90;;;;;;5056946;28;20195;-92
2024/02/04 02:12:18;;;;;;;7.80;5.53;;;7.20;99.90;;;;;;5057139;28;20551;-95
2024/02/04 02:15:28;;;;;;;11.67;6.23;;;7.20;99.90;;;;;;5042229;28;20176;-90
2024/02/04 02:17:57;;;;;;;13.60;6.03;;;7.10;99.90;;;;;;5043268;28;20265;-92
2024/02/04 02:20:30;;;;;;;11.77;5.70;;;7.20;99.90;;;;;;5043231;28;20241;-92
2024/02/04 02:23:10;;;;;;;10.93;5.87;;;7.20;99.90;;;;;;5036733;28;20182;-90
2024/02/04 02:25:40;;;;;;;10.93;5.70;;;7.20;99.90;;;;;;5016993;28;20177;-94
2024/02/04 02:28:09;;;;;;;13.73;6.10;;;7.10;99.90;;;;;;5046437;28;20204;-93
2024/02/04 02:30:35;;;;;;;11.73;6.50;;;7.10;99.90;;;;;;5056297;28;20586;-91
2024/02/04 02:33:51;;;;;;;10.60;6.00;;;7.00;99.90;;;;;;5056317;28;20177;-90
2024/02/04 02:36:21;;;;;;;15.37;5.80;;;7.00;99.90;;;;;;5034555;28;20240;-94
2024/02/04 02:39:23;;;;;;;9.90;5.40;;;7.00;99.90;;;;;;5036359;28;20681;-92
2024/02/04 02:41:53;;;;;;;15.57;5.70;;;6.90;99.90;;;;;;5016589;28;20706;-92
2024/02/04 02:44:21;;;;;;;11.03;5.67;;;6.90;99.90;;;;;;5034791;28;20212;-91
2024/02/04 02:46:47;;;;;;;13.10;5.50;;;6.90;99.90;;;;;;5036560;28;20193;-92
2024/02/04 02:49:20;;;;;;;12.03;6.30;;;6.80;99.90;;;;;;5036284;28;20225;-92
2024/02/04 02:51:46;;;;;;;11.47;5.50;;;6.80;99.90;;;;;;5036766;28;20598;-92
2024/02/04 02:54:16;;;;;;;11.07;5.60;;;6.80;99.90;;;;;;5035222;28;20181;-94
2024/02/04 02:56:42;;;;;;;13.83;5.37;;;6.80;99.90;;;;;;5042544;28;20545;-90
2024/02/04 02:59:11;;;;;;;15.90;5.60;;;6.80;99.90;;;;;;5042731;28;20200;-92
2024/02/04 03:01:41;;;;;;;12.97;5.33;;;6.80;99.90;;;;;;5042913;28;20621;-92
2024/02/04 03:04:11;;;;;;;10.90;5.43;;;6.70;99.90;;;;;;5042707;28;20194;-91
2024/02/04 03:06:37;;;;;;;8.03;5.30;;;6.70;99.90;;;;;;5050075;28;20189;-90
2024/02/04 03:09:03;;;;;;;9.50;5.13;;;6.70;99.90;;;;;;5034493;28;20210;-92
2024/02/04 03:11:37;;;;;;;11.00;5.93;;;6.70;99.90;;;;;;5022884;28;20260;-92
2024/02/04 03:14:09;;;;;;;13.30;5.90;;;6.70;99.90;;;;;;5030741;28;20185;-91
2024/02/04 03:16:35;;;;;;;9.37;5.40;;;6.70;99.90;;;;;;5022706;28;20561;-93
2024/02/04 03:19:05;;;;;;;8.87;5.67;;;6.70;99.90;;;;;;5023530;28;20202;-90
2024/02/04 03:21:31;;;;;;;13.43;6.43;;;6.70;99.90;;;;;;5054351;28;20201;-93
2024/02/04 03:23:58;;;;;;;11.30;6.47;;;6.70;99.90;;;;;;5055236;28;20242;-92
2024/02/04 03:26:24;;;;;;;13.97;6.60;;;6.70;99.90;;;;;;5042692;28;20667;-91
2024/02/04 03:28:50;;;;;;;12.83;7.13;;;6.70;99.90;;;;;;5056917;28;20307;-92
2024/02/04 03:31:22;;;;;;;13.97;7.67;;;6.70;99.90;;;;;;5052834;28;20209;-92
2024/02/04 03:36:24;;;;;;;15.43;7.80;;;6.80;99.90;;;;;;5282257;22;21111;-91
2024/02/04 03:38:51;;;;;;;17.67;7.57;;;6.90;99.90;;;;;;5022733;28;20190;-92
2024/02/04 03:41:17;;;;;;;14.70;7.43;;;7.00;99.90;;;;;;5039086;28;20185;-96
2024/02/04 03:43:43;;;;;;;12.73;7.03;;;7.10;99.90;;;;;;5042886;28;20497;-93
2024/02/04 03:46:14;;;;;;;12.97;7.37;;;7.10;99.90;;;;;;5042641;28;20205;-93
2024/02/04 03:48:40;;;;;;;13.40;6.60;;;7.10;99.90;;;;;;5042939;28;20656;-90
2024/02/04 03:51:06;;;;;;;15.33;7.80;;;7.30;99.90;;;;;;5042333;28;20225;-91
2024/02/04 03:53:33;;;;;;;15.07;7.20;;;7.30;99.90;;;;;;5042726;28;20205;-92
2024/02/04 03:55:59;;;;;;;11.47;7.10;;;7.30;99.90;;;;;;5042746;28;20566;-93
2024/02/04 03:58:29;;;;;;;15.20;6.93;;;7.30;99.90;;;;;;5039533;28;20185;-91
2024/02/04 04:00:58;;;;;;;10.90;7.07;;;7.50;99.90;;;;;;5042691;28;20188;-91
2024/02/04 04:03:26;;;;;;;14.63;7.10;;;7.50;99.90;;;;;;5042577;28;20205;-91
2024/02/04 04:05:53;;;;;;;11.67;6.80;;;7.40;99.90;;;;;;5053555;28;20178;-92
2024/02/04 04:08:19;;;;;;;13.60;7.00;;;7.40;99.90;;;;;;5036018;28;20183;-92
2024/02/04 04:10:46;;;;;;;15.97;7.27;;;7.40;99.90;;;;;;5020262;28;20193;-91
2024/02/04 04:13:12;;;;;;;13.03;7.30;;;7.40;99.90;;;;;;5028839;28;20178;-92
2024/02/04 04:15:42;;;;;;;13.47;7.03;;;7.40;99.90;;;;;;5027253;28;20197;-93
2024/02/04 04:18:08;;;;;;;15.63;6.80;;;7.50;99.90;;;;;;5027927;28;20213;-91
2024/02/04 04:20:33;;;;;;;11.37;6.57;;;7.40;99.90;;;;;;5023204;28;20213;-92
2024/02/04 04:22:59;;;;;;;16.80;7.67;;;7.30;99.90;;;;;;5023532;28;20241;-93
2024/02/04 04:25:25;;;;;;;11.97;6.57;;;7.30;99.90;;;;;;5056270;28;20189;-93
2024/02/04 04:27:51;;;;;;;12.37;7.20;;;7.20;99.90;;;;;;5030708;28;20182;-92
2024/02/04 04:30:17;;;;;;;15.60;6.77;;;7.20;99.90;;;;;;5021035;28;20187;-90
2024/02/04 04:32:43;;;;;;;13.83;6.50;;;7.40;99.90;;;;;;5019017;28;20256;-91
2024/02/04 04:35:09;;;;;;;17.73;6.30;;;7.20;99.90;;;;;;5027173;28;20225;-92
2024/02/04 04:37:35;;;;;;;12.07;6.57;;;7.10;99.90;;;;;;5027426;28;20190;-91
2024/02/04 04:40:01;;;;;;;13.87;6.70;;;7.20;99.90;;;;;;5027030;28;20182;-91
2024/02/04 04:42:27;;;;;;;12.50;6.43;;;7.10;99.90;;;;;;5027383;28;20198;-92
2024/02/04 04:44:55;;;;;;;11.73;6.23;;;7.10;99.90;;;;;;5033596;28;20182;-91
2024/02/04 04:47:20;;;;;;;14.90;6.67;;;7.10;99.90;;;;;;5038571;28;20194;-90
2024/02/04 04:49:46;;;;;;;16.50;6.77;;;7.10;99.90;;;;;;5038482;28;20188;-92
2024/02/04 04:52:13;;;;;;;11.80;6.10;;;7.10;99.90;;;;;;5038145;28;20217;-91
2024/02/04 04:54:40;;;;;;;11.90;5.93;;;7.10;99.90;;;;;;5038623;28;20197;-89
2024/02/04 04:57:05;;;;;;;8.27;5.73;;;7.30;99.90;;;;;;5038696;28;20189;-91
2024/02/04 04:59:31;;;;;;;12.20;4.83;;;7.30;99.90;;;;;;5038717;28;20243;-90
2024/02/04 05:01:57;;;;;;;8.63;4.50;;;7.40;99.90;;;;;;5023285;28;20178;-90
2024/02/04 05:04:25;;;;;;;10.73;4.30;;;7.40;99.90;;;;;;5018335;28;20182;-91
2024/02/04 05:06:51;;;;;;;10.83;4.27;;;7.50;99.90;;;;;;5020059;28;20628;-92
2024/02/04 05:09:17;;;;;;;13.00;5.03;;;7.50;99.90;;;;;;5028675;28;20605;-92
2024/02/04 05:11:43;;;;;;;10.33;4.20;;;7.40;99.90;;;;;;5033318;28;20271;-91
2024/02/04 05:14:09;;;;;;;11.17;4.13;;;7.40;99.90;;;;;;5044290;28;20186;-92
2024/02/04 05:16:36;;;;;;;9.63;3.77;;;7.30;99.90;;;;;;5044583;28;20517;-91
2024/02/04 05:19:02;;;;;;;10.70;3.50;;;7.30;99.90;;;;;;5043589;28;20177;-92
2024/02/04 05:21:28;;;;;;;8.10;3.23;;;7.30;99.90;;;;;;5018409;28;20187;-92
2024/02/04 05:23:54;;;;;;;6.27;2.90;;;7.30;99.90;;;;;;5026388;28;20190;-91
2024/02/04 05:26:20;;;;;;;8.40;3.30;;;7.30;99.90;;;;;;5035805;28;20249;-91
2024/02/04 05:28:46;;;;;;;6.80;3.23;;;7.40;99.90;;;;;;5026504;28;20260;-91
2024/02/04 05:31:12;;;;;;;9.37;3.20;;;7.30;99.90;;;;;;5018225;28;20242;-92
2024/02/04 05:33:38;;;;;;;9.83;3.00;;;7.40;99.90;;;;;;5018395;28;20198;-89
2024/02/04 05:36:04;;;;;;;7.17;2.80;;;7.40;99.90;;;;;;5030684;28;20238;-91
2024/02/04 05:38:30;;;;;;;11.30;3.30;;;7.50;99.90;;;;;;5022300;28;20194;-91
2024/02/04 05:40:56;;;;;;;9.03;2.80;;;7.50;99.90;;;;;;5021771;28;20187;-91
2024/02/04 05:43:22;;;;;;;9.50;3.30;;;7.60;99.90;;;;;;5016047;28;20190;-91
2024/02/04 05:45:48;;;;;;;9.57;3.23;;;7.40;99.90;;;;;;5014781;28;20186;-91
2024/02/04 05:48:14;;;;;;;9.30;2.80;;;7.50;99.90;;;;;;5014569;28;20601;-91
2024/02/04 05:50:40;;;;;;;8.83;2.97;;;7.50;99.90;;;;;;5026756;28;20628;-88
2024/02/04 05:53:06;;;;;;;6.07;2.80;;;7.50;99.90;;;;;;5017740;28;20191;-91
2024/02/04 05:55:32;;;;;;;6.40;2.23;;;7.50;99.90;;;;;;5022388;28;20179;-90
2024/02/04 05:57:58;;;;;;;8.73;2.80;;;7.40;99.90;;;;;;5014061;28;20179;-91
2024/02/04 06:00:24;;;;;;;9.70;3.30;;;7.40;99.90;;;;;;5022271;28;20179;-91
2024/02/04 06:02:50;;;;;;;13.53;3.73;;;7.40;99.90;;;;;;5022730;28;20191;-90
2024/02/04 06:05:16;;;;;;;7.87;3.40;;;7.30;99.90;;;;;;5016336;28;20175;-90
2024/02/04 06:07:44;;;;;;;5.00;2.73;;;7.20;99.90;;;;;;5025449;28;20186;-91
2024/02/04 06:10:11;;;;;;;9.37;3.50;;;7.20;99.90;;;;;;5014352;28;20221;-91
2024/02/04 06:12:37;;;;;;;9.27;3.63;;;7.30;99.90;;;;;;5022605;28;20211;-92
2024/02/04 06:15:04;;;;;;;9.33;3.90;;;7.10;99.90;;;;;;5021454;28;20197;-91
2024/02/04 06:17:30;;;;;;;11.13;3.47;;;7.10;99.90;;;;;;5022154;28;20225;-90
2024/02/04 06:19:57;;;;;;;9.10;3.10;;;7.10;99.90;;;;;;5020827;28;20220;-90
2024/02/04 06:22:24;;;;;;;11.37;3.60;;;7.10;99.90;;;;;;5014885;28;20183;-91
2024/02/04 06:24:50;;;;;;;8.80;3.97;;;7.30;99.90;;;;;;5028003;28;20502;-91
2024/02/04 06:27:16;;;;;;;9.23;3.63;;;7.30;99.90;;;;;;5033387;28;20181;-91
2024/02/04 06:29:42;;;;;;;12.17;3.83;;;7.20;99.90;;;;;;5032936;28;20190;-91
2024/02/04 06:32:08;;;;;;;9.63;4.23;;;7.20;99.90;;;;;;5033025;28;20217;-90
2024/02/04 06:34:33;;;;;;;10.00;4.10;;;7.10;99.90;;;;;;5033795;28;20569;-90
2024/02/04 06:37:02;;;;;;;9.00;3.70;;;7.20;99.90;;;;;;5032935;28;20332;-90
2024/02/04 06:39:28;;;;;;;9.00;4.20;;;7.20;99.90;;;;;;5013785;28;20253;-92
2024/02/04 06:41:54;;;;;;;10.03;4.00;;;7.20;99.90;;;;;;5013891;28;20709;-90
2024/02/04 06:44:19;;;;;;;11.53;4.43;;;7.20;99.90;;;;;;5013430;28;20532;-90
2024/02/04 06:46:46;;;;;;;11.20;4.50;;;7.20;99.90;;;;;;5013285;28;20194;-90
2024/02/04 06:49:17;;;;;;;14.60;4.67;;;7.20;99.90;;;;;;5013135;28;20215;-91
2024/02/04 06:51:44;;;;;;;11.73;4.63;;;7.20;99.90;;;;;;5018163;28;20256;-91
2024/02/04 06:54:10;;;;;;;14.33;4.70;;;7.20;99.90;;;;;;5024620;28;20195;-91
2024/02/04 06:56:36;;;;;;;11.60;4.57;;;7.10;99.90;;;;;;5012793;28;20692;-90
2024/02/04 06:59:03;;;;;;;12.83;5.10;;;7.20;99.90;;;;;;5013233;28;20191;-92
2024/02/04 07:01:28;;;;;;;10.47;5.23;;;7.20;99.90;;;;;;5021348;28;20648;-90
2024/02/04 07:03:54;;;;;;;12.27;5.10;;;7.10;99.90;;;;;;5028027;28;20217;-90
2024/02/04 07:06:20;;;;;;;10.90;5.07;;;7.20;99.90;;;;;;5032630;28;20193;-90
2024/02/04 07:08:46;;;;;;;13.03;5.60;;;7.40;99.90;;;;;;5019020;28;20618;-90
2024/02/04 07:11:12;;;;;;;10.13;4.77;;;7.40;99.90;;;;;;5022128;28;20210;-91
2024/02/04 07:13:38;;;;;;;11.97;5.80;;;7.30;99.90;;;;;;5033240;28;20273;-90
2024/02/04 07:16:04;;;;;;;15.37;5.50;;;7.40;99.90;;;;;;5032952;28;20551;-90
2024/02/04 07:18:31;;;;;;;12.77;5.53;;;7.40;99.90;;;;;;5032321;28;20624;-91
2024/02/04 07:20:57;;;;;;;15.13;5.73;;;7.30;99.90;;;;;;5032748;28;20186;-90
2024/02/04 07:23:23;;;;;;;14.80;5.70;;;7.30;99.90;;;;;;5032823;28;20178;-91
2024/02/04 07:25:49;;;;;;;13.80;5.47;;;7.30;99.90;;;;;;5024476;28;20194;-89
2024/02/04 07:28:14;;;;;;;12.73;5.40;;;7.30;99.90;;;;;;5032503;28;20183;-90
2024/02/04 07:30:40;;;;;;;10.20;5.50;;;7.20;99.90;;;;;;5024423;28;20698;-91
2024/02/04 07:33:06;;;;;;;12.40;5.70;;;7.20;99.90;;;;;;5033150;28;20190;-90
2024/02/04 07:35:32;;;;;;;12.60;5.17;;;7.20;99.90;;;;;;5013153;28;20239;-90
2024/02/04 07:37:58;;;;;;;13.73;6.00;;;7.30;99.90;;;;;;5028211;28;20182;-90
2024/02/04 07:40:24;;;;;;;9.13;4.80;;;7.30;99.90;;;;;;5032750;28;20191;-90
2024/02/04 07:42:50;;;;;;;10.30;4.53;;;7.30;99.90;;;;;;5027929;28;20253;-89
2024/02/04 07:45:16;;;;;;;13.43;4.10;;;7.40;99.90;;;;;;5016518;28;20183;-92
2024/02/04 07:47:44;;;;;;;9.33;4.37;;;7.40;99.90;;;;;;5017006;28;20179;-90
2024/02/04 07:50:10;;;;;;;10.73;4.47;;;7.30;99.90;;;;;;5024836;28;20215;-91
2024/02/04 07:52:36;;;;;;;9.63;4.30;;;7.40;99.90;;;;;;5028889;28;20241;-90
2024/02/04 07:55:01;;;;;;;7.47;3.50;;;7.40;99.90;;;;;;5036170;28;20186;-91
2024/02/04 07:57:27;;;;;;;10.07;4.27;;;7.50;99.90;;;;;;5027332;28;20190;-88
2024/02/04 07:59:53;;;;;;;7.67;4.40;;;7.50;99.90;;;;;;5028288;28;20572;-90
2024/02/04 08:02:19;;;;;;;6.37;3.63;;;7.60;99.90;;;;;;5026226;28;20195;-87
2024/02/04 08:04:45;;;;;;;8.77;3.00;;;7.50;99.90;;;;;;5026673;28;20175;-90
2024/02/04 08:07:11;;;;;;;6.13;3.00;;;7.60;99.90;;;;;;5027588;28;20252;-88
2024/02/04 08:09:37;;;;;;;8.23;3.30;;;7.60;99.90;;;;;;5028022;28;20277;-88
2024/02/04 08:12:03;;;;;;;8.27;3.00;;;7.60;99.90;;;;;;5035958;28;20553;-91
2024/02/04 08:14:29;;;;;;;7.07;3.03;;;7.60;99.90;;;;;;5024769;28;20199;-89
2024/02/04 08:16:55;;;;;;;8.23;3.10;;;7.70;99.90;;;;;;5020453;28;20179;-91
2024/02/04 08:19:21;;;;;;;6.80;2.10;;;7.80;99.90;;;;;;5032731;28;20219;-91
2024/02/04 08:21:47;;;;;;;5.37;1.90;;;7.80;99.90;;;;;;5024725;28;20270;-89
2024/02/04 08:24:13;;;;;;;8.30;2.80;;;7.90;99.90;;;;;;5032730;28;20514;-90
2024/02/04 08:26:39;;;;;;;7.93;2.10;;;7.90;99.90;;;;;;5035258;28;20229;-92
2024/02/04 08:29:05;;;;;;;9.67;2.50;;;7.90;99.90;;;;;;5035583;28;20194;-90
2024/02/04 08:31:33;;;;;;;9.50;2.50;;;7.90;99.90;;;;;;5024137;28;20290;-90
2024/02/04 08:33:59;;;;;;;10.13;2.47;;;7.80;99.90;;;;;;5027660;28;20264;-90
2024/02/04 08:36:25;;;;;;;6.67;2.40;;;7.80;99.90;;;;;;5031408;28;20230;-90
2024/02/04 08:38:51;;;;;;;6.10;2.13;;;7.80;99.90;;;;;;5022392;28;20202;-90
2024/02/04 08:41:17;;;;;;;6.17;2.07;;;7.90;99.90;;;;;;5025930;28;20223;-90
2024/02/04 08:43:43;;;;;;;7.93;2.07;;;7.90;99.90;;;;;;5035242;28;20190;-91
2024/02/04 08:46:09;;;;;;;9.97;2.63;;;8.00;99.90;;;;;;5026878;28;20194;-91
2024/02/04 08:48:36;;;;;;;7.10;2.30;;;7.90;99.90;;;;;;5033905;28;20882;-91
2024/02/04 08:51:02;;;;;;;8.90;2.30;;;8.00;99.90;;;;;;5029082;28;20202;-90
2024/02/04 08:53:28;;;;;;;8.07;2.13;;;8.10;99.90;;;;;;5030900;28;20634;-91
2024/02/04 08:55:54;;;;;;;7.33;1.90;;;8.00;99.90;;;;;;5023413;28;20298;-91
2024/02/04 08:58:20;;;;;;;8.70;2.03;;;8.00;99.90;;;;;;5033003;28;20187;-92
2024/02/04 09:00:48;;;;;;;12.13;2.50;;;8.10;99.90;;;;;;5036358;28;20182;-91
2024/02/04 09:03:14;;;;;;;6.77;2.00;;;8.10;99.90;;;;;;5024669;28;20194;-91
2024/02/04 09:05:40;;;;;;;4.47;1.77;;;8.10;99.90;;;;;;5030614;28;20179;-90
2024/02/04 09:08:06;;;;;;;10.52;2.00;;;8.10;99.90;;;;;;5032841;28;20192;-89
2024/02/04 09:10:32;;;;;;;7.22;1.92;;;8.10;99.90;;;;;;5031782;28;20207;-92
2024/02/04 09:12:58;;;;;;;5.47;1.80;;;8.10;99.90;;;;;;5034978;28;20296;-91
2024/02/04 09:15:24;;;;;;;6.65;2.10;;;8.20;99.90;;;;;;5021237;28;20240;-92
2024/02/04 09:17:50;;;;;;;9.70;2.10;;;8.20;99.90;;;;;;5029059;28;20645;-94
2024/02/04 09:20:15;;;;;;;6.60;2.03;;;8.20;99.90;;;;;;5024885;28;20188;-88
2024/02/04 09:22:41;;;;;;;6.87;1.97;;;8.30;99.90;;;;;;5029466;28;20194;-88
2024/02/04 09:25:07;;;;;;;8.00;2.30;;;8.20;99.90;;;;;;5029770;28;20628;-92
2024/02/04 09:27:33;;;;;;;5.77;2.10;;;8.30;99.90;;;;;;5023159;28;20179;-93
2024/02/04 09:29:59;;;;;;;8.98;2.38;;;8.30;99.90;;;;;;5025142;28;20269;-88
2024/02/04 09:32:28;;;;;;;7.30;2.30;;;8.30;99.90;;;;;;5034395;28;20214;-92
2024/02/04 09:34:54;;;;;;;9.33;3.43;;;8.30;99.90;;;;;;5024022;28;20528;-92
2024/02/04 09:37:20;;;;;;;12.37;4.57;;;8.30;99.90;;;;;;5035943;28;20250;-92
2024/02/04 09:39:46;;;;;;;12.03;4.17;;;8.40;99.90;;;;;;5035633;28;20541;-92
2024/02/04 09:42:23;;;;;;;8.70;2.43;;;8.40;99.90;;;;;;5035836;28;20201;-93
2024/02/04 09:44:53;;;;;;;12.27;2.50;;;8.30;99.90;;;;;;5036532;28;20177;-90
2024/02/04 09:47:20;;;;;;;7.43;2.23;;;8.30;99.90;;;;;;5034735;28;20273;-90
2024/02/04 09:49:46;;;;;;;8.40;2.07;;;8.30;99.90;;;;;;5035414;28;20170;-92
2024/02/04 09:52:16;;;;;;;9.17;2.17;;;8.30;99.90;;;;;;5036662;28;20243;-91
2024/02/04 09:54:49;;;;;;;8.43;2.00;;;8.20;99.90;;;;;;5017612;28;20202;-95
2024/02/04 09:57:16;;;;;;;5.13;1.70;;;8.20;99.90;;;;;;5033479;28;20186;-95
2024/02/04 09:59:44;;;;;;;5.67;1.80;;;8.20;99.90;;;;;;5022600;28;20208;-91
2024/02/04 10:02:10;;;;;;;6.50;2.17;;;8.20;99.90;;;;;;5052302;28;20189;-90
2024/02/04 10:04:36;;;;;;;10.17;2.27;;;8.20;99.90;;;;;;5040365;28;20598;-91
2024/02/04 10:07:03;;;;;;;7.80;1.80;;;8.10;99.90;;;;;;5055380;28;20265;-92
2024/02/04 10:09:30;;;;;;;9.98;1.80;;;8.20;99.90;;;;;;5044516;28;20178;-91
2024/02/04 10:11:56;;;;;;;8.37;1.70;;;8.30;99.90;;;;;;5037662;28;20205;-90
2024/02/04 10:14:23;;;;;;;6.87;1.60;;;8.20;99.90;;;;;;5040988;28;20178;-90
2024/02/04 10:16:50;;;;;;;11.73;2.55;;;8.20;99.90;;;;;;5042653;28;20187;-92
2024/02/04 10:19:19;;;;;;;7.87;1.70;;;8.20;99.90;;;;;;5037705;28;20174;-90
2024/02/04 10:22:01;;;;;;;7.57;2.00;;;8.30;99.90;;;;;;5042771;28;20209;-94
2024/02/04 10:24:27;;;;;;;5.73;1.63;;;8.30;99.90;;;;;;5042051;28;20178;-93
2024/02/04 10:26:57;;;;;;;11.37;2.13;;;8.30;99.90;;;;;;5040700;28;20201;-89
2024/02/04 10:29:24;;;;;;;9.30;1.93;;;8.30;99.90;;;;;;5044124;28;20170;-93
2024/02/04 10:31:57;;;;;;;10.17;1.77;;;8.30;99.90;;;;;;5041943;28;20206;-92
2024/02/04 10:34:30;;;;;;;6.07;1.67;;;8.30;99.90;;;;;;5043866;28;20242;-93
2024/02/04 10:36:58;;;;;;;4.77;1.23;;;8.40;99.90;;;;;;5033664;28;20230;-92
2024/02/04 10:39:24;;;;;;;8.43;1.70;;;8.20;99.90;;;;;;5029671;28;20200;-92
2024/02/04 10:41:52;;;;;;;9.50;2.17;;;8.30;99.90;;;;;;5028379;28;20190;-92
2024/02/04 10:44:23;;;;;;;9.47;1.67;;;8.30;99.90;;;;;;5032359;28;20928;-94
2024/02/04 10:46:50;;;;;;;9.25;1.80;;;8.30;99.90;;;;;;5026248;28;20183;-93
2024/02/04 10:49:19;;;;;;;6.77;1.70;;;8.30;99.90;;;;;;5035769;28;20244;-93
2024/02/04 10:51:47;;;;;;;8.33;1.60;;;8.30;99.90;;;;;;5028226;28;20224;-93
2024/02/04 10:54:17;;;;;;;8.40;1.97;;;8.40;99.90;;;;;;5030223;28;20189;-94
2024/02/04 10:56:46;;;;;;;7.47;1.63;;;8.30;99.90;;;;;;5024733;28;20171;-94
2024/02/04 10:59:17;;;;;;;7.00;1.60;;;8.40;99.90;;;;;;5011703;28;20213;-94
2024/02/04 11:01:49;;;;;;;8.83;1.97;;;8.40;99.90;;;;;;5020905;28;20167;-94
2024/02/04 11:04:16;;;;;;;7.33;1.60;;;8.40;99.90;;;;;;5018202;28;20640;-94
2024/02/04 11:06:43;;;;;;;10.70;1.83;;;8.30;99.90;;;;;;5026113;28;20185;-92
2024/02/04 11:09:11;;;;;;;12.27;1.97;;;8.40;99.90;;;;;;5022600;28;20622;-95
2024/02/04 11:11:39;;;;;;;10.98;2.30;;;8.30;99.90;;;;;;5030638;28;20209;-94
2024/02/04 11:14:12;;;;;;;9.10;2.07;;;8.40;99.90;;;;;;5030572;28;20182;-95
2024/02/04 11:17:06;;;;;;;6.28;1.55;;;8.40;99.90;;;;;;5031246;28;20570;-93
2024/02/04 11:19:52;;;;;;;7.07;1.70;;;8.40;99.90;;;;;;5024833;28;20189;-95
2024/02/04 11:22:52;;;;;;;9.63;1.85;;;8.40;99.90;;;;;;5034864;28;20194;-94
2024/02/04 11:25:46;;;;;;;8.30;2.22;;;8.40;99.90;;;;;;5036746;28;20237;-94
2024/02/04 11:28:13;;;;;;;10.50;1.83;;;8.50;99.90;;;;;;5016807;28;20265;-92
2024/02/04 11:30:39;;;;;;;7.90;2.07;;;8.40;99.90;;;;;;5036872;28;20228;-93
2024/02/04 11:33:10;;;;;;;9.23;1.50;;;8.40;99.90;;;;;;5035502;28;20756;-92
2024/02/04 11:35:37;;;;;;;9.48;2.00;;;8.50;99.90;;;;;;5036904;28;20226;-95
2024/02/04 11:38:03;;;;;;;17.35;2.70;;;8.50;99.90;;;;;;5037473;28;20178;-93
2024/02/04 11:40:37;;;;;;;10.65;1.88;;;8.60;99.90;;;;;;5037958;28;20190;-92
2024/02/04 11:43:10;;;;;;;6.63;2.05;;;8.60;99.90;;;;;;5025144;28;20185;-95
2024/02/04 11:45:43;;;;;;;12.70;2.30;;;8.60;99.90;;;;;;5026660;28;20187;-93
2024/02/04 11:48:12;;;;;;;9.43;1.93;;;8.70;99.90;;;;;;5030594;28;20190;-93
2024/02/04 11:50:40;;;;;;;11.15;2.30;;;8.70;99.90;;;;;;5022188;28;20237;-95
2024/02/04 11:53:13;;;;;;;8.25;2.00;;;8.80;99.90;;;;;;5030271;28;20207;-91
2024/02/04 11:55:40;;;;;;;11.90;2.60;;;8.80;99.90;;;;;;5030419;28;20209;-93
2024/02/04 11:58:07;;;;;;;7.35;2.15;;;8.80;99.90;;;;;;5029777;28;20198;-94
2024/02/04 12:00:36;;;;;;;6.95;2.38;;;8.80;99.90;;;;;;5033532;28;20178;-92
2024/02/04 12:03:06;;;;;;;9.20;2.50;;;8.70;99.90;;;;;;5025520;28;20266;-93
2024/02/04 12:05:34;;;;;;;12.93;2.08;;;8.60;99.90;;;;;;5028891;28;20178;-92
2024/02/04 12:08:07;;;;;;;9.52;1.92;;;8.70;99.90;;;;;;5029250;28;20206;-93
2024/02/04 12:10:35;;;;;;;6.03;1.90;;;8.70;99.90;;;;;;5029370;28;20214;-93
2024/02/04 12:13:07;;;;;;;10.67;2.23;;;8.60;99.90;;;;;;5034988;28;20206;-92
2024/02/04 12:15:36;;;;;;;12.95;2.13;;;8.70;99.90;;;;;;5035790;28;20167;-93
2024/02/04 12:18:10;;;;;;;9.93;2.00;;;8.60;99.90;;;;;;5036478;28;20610;-90
2024/02/04 12:20:36;;;;;;;10.67;2.23;;;8.60;99.90;;;;;;5030095;28;20175;-91
2024/02/04 12:23:06;;;;;;;4.37;1.63;;;8.60;99.90;;;;;;5037086;28;20193;-93
2024/02/04 12:25:33;;;;;;;6.85;2.10;;;8.70;99.90;;;;;;5036133;28;20525;-96
2024/02/04 12:28:00;;;;;;;12.88;2.72;;;8.70;99.90;;;;;;5035612;28;20497;-90
2024/02/04 12:30:27;;;;;;;11.60;2.28;;;8.70;99.90;;;;;;5032270;28;20182;-95
2024/02/04 12:32:58;;;;;;;7.40;1.80;;;8.60;99.90;;;;;;5033883;28;20198;-90
2024/02/04 12:35:28;;;;;;;5.32;1.73;;;8.60;99.90;;;;;;5037631;28;21068;-92
2024/02/04 12:37:56;;;;;;;9.57;2.05;;;8.60;99.90;;;;;;5042990;28;20177;-93
2024/02/04 12:40:26;;;;;;;6.30;2.08;;;8.70;99.90;;;;;;5039251;28;20594;-91
2024/02/04 12:42:58;;;;;;;8.23;1.67;;;8.80;99.90;;;;;;5044307;28;20261;-94
2024/02/04 12:45:27;;;;;;;5.60;1.87;;;8.80;99.90;;;;;;5038939;28;20197;-94
2024/02/04 12:48:00;;;;;;;10.13;2.60;;;8.90;99.90;;;;;;5019561;28;20182;-94
2024/02/04 12:50:27;;;;;;;10.70;2.20;;;8.90;99.90;;;;;;5027819;28;20183;-91
2024/02/04 12:53:07;;;;;;;8.03;1.70;;;8.80;99.90;;;;;;5036257;28;20218;-91
2024/02/04 12:55:34;;;;;;;6.87;1.50;;;8.80;99.90;;;;;;5029807;28;20653;-94
2024/02/04 12:58:09;;;;;;;11.55;2.08;;;8.90;99.90;;;;;;5040903;28;20179;-92
2024/02/04 13:00:36;;;;;;;8.32;2.10;;;8.90;99.90;;;;;;5016951;28;20186;-93
2024/02/04 13:03:07;;;;;;;10.43;2.17;;;8.80;99.90;;;;;;5032154;28;20270;-94